Time;durP1;ratioP1;P1;durP2;ratioP2;P2;SDS_P1;SDS_P2;PMS_P1;PMS_P2;Temp;Humidity;BMP_temperature;BMP_pressure;BME280_temperature;BME280_humidity;BME280_pressure;Samples;Min_cycle;Max_cycle;Signal;HPM_P1;HPM_P2
2023/10/10 07:57:22;;;;;;;13.07;4.77;;;;;;;;;;5076622;28;20219;-87
2023/10/10 08:00:38;;;;;;;16.73;5.47;;;;;;;;;;5021382;28;20235;-73
2023/10/10 08:03:46;;;;;;;48.63;28.50;;;;;;;;;;5015653;28;20196;-73
2023/10/10 08:06:50;;;;;;;21.03;10.60;;;;;;;;;;5015208;28;20193;-73
2023/10/10 08:10:13;;;;;;;21.43;8.30;;;;;;;;;;5015438;28;20201;-72
2023/10/10 08:13:18;;;;;;;19.30;6.50;;;;;;;;;;5015441;28;20218;-73
2023/10/10 08:16:25;;;;;;;15.10;4.63;;;;;;;;;;5014265;28;20193;-73
2023/10/10 08:19:33;;;;;;;15.43;5.23;;;;;;;;;;5002986;28;20184;-73
2023/10/10 08:22:37;;;;;;;15.07;5.03;;;;;;;;;;5013814;28;20224;-73
2023/10/10 08:25:41;;;;;;;13.87;5.10;;;;;;;;;;5014891;28;20198;-73
2023/10/10 08:28:46;;;;;;;14.53;4.97;;;;;;;;;;5014909;28;20665;-73
2023/10/10 08:31:51;;;;;;;12.37;4.83;;;;;;;;;;5014766;28;20210;-73
2023/10/10 08:34:56;;;;;;;14.83;5.10;;;;;;;;;;5014200;28;20550;-73
2023/10/10 08:38:00;;;;;;;17.37;5.53;;;;;;;;;;5014796;28;20185;-73
2023/10/10 08:41:08;;;;;;;16.47;4.77;;;;;;;;;;5014455;28;20251;-73
2023/10/10 08:44:15;;;;;;;13.73;5.13;;;;;;;;;;5014624;28;20567;-72
2023/10/10 08:47:26;;;;;;;17.17;4.93;;;;;;;;;;5013833;28;20189;-73
2023/10/10 08:50:34;;;;;;;14.40;4.67;;;;;;;;;;5014726;28;20196;-72
2023/10/10 08:53:38;;;;;;;16.87;5.07;;;;;;;;;;5014448;28;20683;-73
2023/10/10 08:56:59;;;;;;;17.37;4.27;;;;;;;;;;5014605;28;20192;-72
2023/10/10 09:00:11;;;;;;;15.57;4.77;;;;;;;;;;5014544;28;20195;-73
2023/10/10 09:03:15;;;;;;;13.00;4.63;;;;;;;;;;5014213;28;20192;-72
2023/10/10 09:06:20;;;;;;;20.03;5.10;;;;;;;;;;5014213;28;20193;-72
2023/10/10 09:09:33;;;;;;;11.00;4.73;;;;;;;;;;5014450;28;20560;-72
2023/10/10 09:12:52;;;;;;;12.87;5.03;;;;;;;;;;5002213;28;20223;-72
2023/10/10 09:15:56;;;;;;;13.57;4.53;;;;;;;;;;5001920;28;20199;-72
2023/10/10 09:19:10;;;;;;;14.90;4.30;;;;;;;;;;5013956;28;20183;-72
2023/10/10 09:22:42;;;;;;;17.70;5.23;;;;;;;;;;5013118;28;20249;-73
2023/10/10 09:26:08;;;;;;;15.20;4.67;;;;;;;;;;5014178;28;20184;-72
2023/10/10 09:29:28;;;;;;;14.13;4.37;;;;;;;;;;5013814;28;20210;-73
2023/10/10 09:32:36;;;;;;;12.50;4.27;;;;;;;;;;5013560;28;20584;-73
2023/10/10 09:35:40;;;;;;;11.47;4.37;;;;;;;;;;5012668;28;20600;-72
2023/10/10 09:38:46;;;;;;;14.57;4.97;;;;;;;;;;4993661;28;20197;-72
2023/10/10 09:45:27;;;;;;;15.00;4.90;;;;;;;;;;5013826;28;20187;-72
2023/10/10 09:58:25;;;;;;;14.70;4.47;;;;;;;;;;5013290;28;20577;-73
2023/10/10 10:01:29;;;;;;;10.15;4.78;;;;;;;;;;5013168;28;20265;-72
2023/10/10 10:04:41;;;;;;;10.02;4.82;;;;;;;;;;5013256;28;20199;-72
2023/10/10 10:08:09;;;;;;;11.30;4.70;;;;;;;;;;5013163;28;20204;-73
2023/10/10 10:11:28;;;;;;;12.75;5.10;;;;;;;;;;5001360;28;20234;-72
2023/10/10 10:15:06;;;;;;;13.10;4.35;;;;;;;;;;5012373;28;20193;-73
2023/10/10 10:18:19;;;;;;;13.95;4.70;;;;;;;;;;5005817;28;20189;-72
2023/10/10 10:21:32;;;;;;;11.38;4.70;;;;;;;;;;5013198;28;20240;-72
2023/10/10 10:25:07;;;;;;;12.85;5.03;;;;;;;;;;5013375;28;20547;-73
2023/10/10 10:28:19;;;;;;;17.63;4.50;;;;;;;;;;5013225;28;20193;-72
2023/10/10 10:31:29;;;;;;;13.77;4.97;;;;;;;;;;5012210;28;20210;-72
2023/10/10 10:34:35;;;;;;;10.60;4.57;;;;;;;;;;5012498;28;20191;-72
2023/10/10 10:37:40;;;;;;;9.45;4.88;;;;;;;;;;5012945;28;20193;-72
2023/10/10 10:40:48;;;;;;;10.18;4.30;;;;;;;;;;5001062;28;20182;-72
2023/10/10 10:43:52;;;;;;;11.60;4.97;;;;;;;;;;5012370;28;20208;-72
2023/10/10 10:46:57;;;;;;;9.02;4.68;;;;;;;;;;5016440;28;20184;-72
2023/10/10 10:50:03;;;;;;;13.43;5.13;;;;;;;;;;5015866;28;20197;-73
2023/10/10 10:53:09;;;;;;;12.07;4.95;;;;;;;;;;5004615;28;20559;-73
2023/10/10 10:59:38;;;;;;;11.05;4.88;;;;;;;;;;5016454;28;20205;-72
2023/10/10 11:02:49;;;;;;;13.10;5.18;;;;;;;;;;5016783;28;20235;-71
2023/10/10 11:05:54;;;;;;;13.48;5.55;;;;;;;;;;5016324;28;20201;-73
2023/10/10 11:09:09;;;;;;;10.68;4.47;;;;;;;;;;5016357;28;20193;-73
2023/10/10 11:12:14;;;;;;;14.82;5.00;;;;;;;;;;5016471;28;20286;-73
2023/10/10 11:15:19;;;;;;;10.68;4.72;;;;;;;;;;5016254;28;20198;-72
2023/10/10 11:18:34;;;;;;;11.02;5.07;;;;;;;;;;5015471;28;20563;-73
2023/10/10 11:21:48;;;;;;;11.38;4.68;;;;;;;;;;5004016;28;20238;-73
2023/10/10 11:24:57;;;;;;;13.73;5.28;;;;;;;;;;5004400;28;20663;-72
2023/10/10 11:28:04;;;;;;;13.65;5.18;;;;;;;;;;5004196;28;20201;-72
2023/10/10 11:31:08;;;;;;;8.75;4.45;;;;;;;;;;5015924;28;20235;-72
2023/10/10 11:34:26;;;;;;;10.00;4.97;;;;;;;;;;5015981;28;20180;-72
2023/10/10 11:37:33;;;;;;;14.07;5.55;;;;;;;;;;5016005;28;20700;-73
2023/10/10 11:40:37;;;;;;;12.77;5.15;;;;;;;;;;5015760;28;20198;-72
2023/10/10 11:44:03;;;;;;;9.73;4.90;;;;;;;;;;5016012;28;20557;-73
2023/10/10 11:47:21;;;;;;;12.50;5.40;;;;;;;;;;5015890;28;20634;-72
2023/10/10 11:50:29;;;;;;;8.20;4.47;;;;;;;;;;5015633;28;20196;-72
2023/10/10 11:53:36;;;;;;;11.65;4.72;;;;;;;;;;5015536;28;20196;-74
2023/10/10 11:56:40;;;;;;;11.77;4.78;;;;;;;;;;5014789;28;20190;-72
2023/10/10 11:59:46;;;;;;;12.57;4.55;;;;;;;;;;5015714;28;20241;-73
2023/10/10 12:02:51;;;;;;;15.98;5.28;;;;;;;;;;5014443;28;20241;-72
2023/10/10 12:05:58;;;;;;;14.52;4.45;;;;;;;;;;5014802;28;20179;-72
2023/10/10 12:09:02;;;;;;;16.02;4.53;;;;;;;;;;5003580;28;20196;-73
2023/10/10 12:12:06;;;;;;;13.60;4.97;;;;;;;;;;5003733;28;20224;-73
2023/10/10 12:15:15;;;;;;;13.73;4.78;;;;;;;;;;5015661;28;20179;-73
2023/10/10 12:18:20;;;;;;;13.40;4.68;;;;;;;;;;5015305;28;20198;-72
2023/10/10 12:21:25;;;;;;;8.40;4.05;;;;;;;;;;5002865;28;20233;-72
2023/10/10 12:24:29;;;;;;;11.48;4.15;;;;;;;;;;5015214;28;20512;-73
2023/10/10 12:27:33;;;;;;;15.13;4.80;;;;;;;;;;5014925;28;20194;-74
2023/10/10 12:30:41;;;;;;;11.35;4.93;;;;;;;;;;5014840;28;20185;-73
2023/10/10 12:33:47;;;;;;;16.67;5.70;;;;;;;;;;5015301;28;20178;-72
2023/10/10 12:36:59;;;;;;;14.05;4.78;;;;;;;;;;5014260;28;20185;-73
2023/10/10 12:40:09;;;;;;;13.57;4.22;;;;;;;;;;5002720;28;20193;-73
2023/10/10 12:43:12;;;;;;;15.85;4.43;;;;;;;;;;5002509;28;20220;-73
2023/10/10 12:46:20;;;;;;;13.82;4.53;;;;;;;;;;5014522;28;20188;-73
2023/10/10 12:49:36;;;;;;;9.75;4.50;;;;;;;;;;5002794;28;20186;-73
2023/10/10 12:52:46;;;;;;;8.38;4.18;;;;;;;;;;5014449;28;20224;-72
2023/10/10 12:55:55;;;;;;;12.00;4.18;;;;;;;;;;5002577;28;20182;-73
2023/10/10 12:59:03;;;;;;;14.35;4.43;;;;;;;;;;5014615;28;20218;-73
2023/10/10 13:02:13;;;;;;;15.57;4.43;;;;;;;;;;5014240;28;20235;-73
2023/10/10 13:05:27;;;;;;;11.73;4.13;;;;;;;;;;5002218;28;20187;-73
2023/10/10 13:08:48;;;;;;;15.48;5.15;;;;;;;;;;5013299;28;20195;-73
2023/10/10 13:11:56;;;;;;;12.48;4.10;;;;;;;;;;5014108;28;20726;-73
2023/10/10 13:15:18;;;;;;;17.00;4.10;;;;;;;;;;5014059;28;20592;-74
2023/10/10 13:18:24;;;;;;;12.68;4.35;;;;;;;;;;5014313;28;20203;-73
2023/10/10 13:21:28;;;;;;;8.60;3.70;;;;;;;;;;5013893;28;20211;-73
2023/10/10 13:24:33;;;;;;;12.05;4.07;;;;;;;;;;5014471;28;20198;-73
2023/10/10 13:27:37;;;;;;;15.02;3.90;;;;;;;;;;5013028;28;20203;-73
2023/10/10 13:30:41;;;;;;;15.00;4.03;;;;;;;;;;5013829;28;20189;-73
2023/10/10 13:33:46;;;;;;;12.05;4.47;;;;;;;;;;5014045;28;20195;-72
2023/10/10 13:36:50;;;;;;;12.07;3.85;;;;;;;;;;5013743;28;20191;-72
2023/10/10 13:39:55;;;;;;;13.27;3.90;;;;;;;;;;5001885;28;20191;-71
2023/10/10 13:42:59;;;;;;;11.30;3.80;;;;;;;;;;5012785;28;20222;-71
2023/10/10 13:46:05;;;;;;;14.60;4.50;;;;;;;;;;5013668;28;20549;-72
2023/10/10 13:49:12;;;;;;;9.02;4.05;;;;;;;;;;5013591;28;20190;-71
2023/10/10 13:52:16;;;;;;;11.38;3.72;;;;;;;;;;5013433;28;20209;-72
2023/10/10 13:55:21;;;;;;;9.10;4.03;;;;;;;;;;5001690;28;20674;-72
2023/10/10 13:58:26;;;;;;;10.85;3.97;;;;;;;;;;5013377;28;20217;-73
2023/10/10 14:01:36;;;;;;;15.40;5.00;;;;;;;;;;5013446;28;20235;-73
2023/10/10 14:04:47;;;;;;;9.98;4.28;;;;;;;;;;4996162;28;20199;-72
2023/10/10 14:07:53;;;;;;;12.15;4.22;;;;;;;;;;4993721;28;20190;-72
2023/10/10 14:11:02;;;;;;;7.25;3.80;;;;;;;;;;4993863;28;20664;-72
2023/10/10 14:14:06;;;;;;;9.82;3.55;;;;;;;;;;4994365;28;20181;-73
2023/10/10 14:17:12;;;;;;;14.48;4.10;;;;;;;;;;4982350;28;20189;-73
2023/10/10 14:20:21;;;;;;;7.47;3.70;;;;;;;;;;4994630;28;20193;-72
2023/10/10 14:23:25;;;;;;;8.45;3.53;;;;;;;;;;4985471;28;20217;-73
2023/10/10 14:26:31;;;;;;;8.80;3.92;;;;;;;;;;4997541;28;20192;-73
2023/10/10 14:29:41;;;;;;;7.90;3.63;;;;;;;;;;4997464;28;20185;-73
2023/10/10 14:32:45;;;;;;;10.55;3.35;;;;;;;;;;4997417;28;20223;-73
2023/10/10 14:35:49;;;;;;;9.07;4.10;;;;;;;;;;4985649;28;20203;-73
2023/10/10 14:38:53;;;;;;;10.77;4.22;;;;;;;;;;4997341;28;20200;-73
2023/10/10 14:41:58;;;;;;;8.43;3.60;;;;;;;;;;4997278;28;20224;-73
2023/10/10 14:45:06;;;;;;;9.68;3.92;;;;;;;;;;4985414;28;20188;-73
2023/10/10 14:48:14;;;;;;;6.38;3.85;;;;;;;;;;4985318;28;20189;-72
2023/10/10 14:51:18;;;;;;;10.73;3.45;;;;;;;;;;4984997;28;20210;-73
2023/10/10 14:54:23;;;;;;;8.70;3.88;;;;;;;;;;4997006;28;20179;-72
2023/10/10 14:57:29;;;;;;;12.73;3.83;;;;;;;;;;4984964;28;20550;-73
2023/10/10 15:00:39;;;;;;;9.75;3.70;;;;;;;;;;4996911;28;20193;-72
2023/10/10 15:03:47;;;;;;;14.10;3.95;;;;;;;;;;4974185;28;20223;-72
2023/10/10 15:06:54;;;;;;;10.55;4.40;;;;;;;;;;4995990;28;20683;-72
2023/10/10 15:09:58;;;;;;;9.95;4.57;;;;;;;;;;4996035;28;20672;-73
2023/10/10 15:13:02;;;;;;;10.90;4.43;;;;;;;;;;4996315;28;20718;-73
2023/10/10 15:16:09;;;;;;;11.48;4.85;;;;;;;;;;4996342;28;20699;-73
2023/10/10 15:19:13;;;;;;;10.73;4.57;;;;;;;;;;4984963;28;20669;-72
2023/10/10 15:22:18;;;;;;;11.23;4.80;;;;;;;;;;4995052;28;21132;-73
2023/10/10 15:25:22;;;;;;;11.47;4.50;;;;;;;;;;4984744;28;20192;-73
2023/10/10 15:28:28;;;;;;;10.77;4.47;;;;;;;;;;4984745;28;20211;-73
2023/10/10 15:31:32;;;;;;;10.20;4.47;;;;;;;;;;4994049;28;20713;-73
2023/10/10 15:34:35;;;;;;;10.53;4.33;;;;;;;;;;4984643;28;20195;-73
2023/10/10 15:37:42;;;;;;;10.23;4.00;;;;;;;;;;4996203;28;20194;-73
2023/10/10 15:40:46;;;;;;;9.40;3.87;;;;;;;;;;4984683;28;20194;-73
2023/10/10 15:43:51;;;;;;;9.17;3.90;;;;;;;;;;4996152;28;20220;-73
2023/10/10 15:46:58;;;;;;;7.83;3.93;;;;;;;;;;4995968;28;20182;-73
2023/10/10 15:50:02;;;;;;;13.33;4.43;;;;;;;;;;4984005;28;20188;-73
2023/10/10 15:53:06;;;;;;;10.83;4.57;;;;;;;;;;4996031;28;20190;-73
2023/10/10 15:56:11;;;;;;;27.83;4.20;;;;;;;;;;4996050;28;20584;-73
2023/10/10 15:59:15;;;;;;;9.53;3.90;;;;;;;;;;4983692;28;20202;-73
2023/10/10 16:02:21;;;;;;;12.63;4.27;;;;;;;;;;4995646;28;20221;-73
2023/10/10 16:05:25;;;;;;;7.07;3.63;;;;;;;;;;4995653;28;20255;-73
2023/10/10 16:08:29;;;;;;;10.87;4.27;;;;;;;;;;4983680;28;20190;-73
2023/10/10 16:11:34;;;;;;;8.33;3.77;;;;;;;;;;4995642;28;20577;-74
2023/10/10 16:14:39;;;;;;;12.30;4.50;;;;;;;;;;4995580;28;20585;-74
2023/10/10 16:17:44;;;;;;;10.77;4.13;;;;;;;;;;4995811;28;20538;-76
2023/10/10 16:20:48;;;;;;;9.83;4.27;;;;;;;;;;4995733;28;20194;-74
2023/10/10 16:23:54;;;;;;;7.70;3.73;;;;;;;;;;4983298;28;20214;-74
2023/10/10 16:26:58;;;;;;;7.17;4.07;;;;;;;;;;4983307;28;20186;-74
2023/10/10 16:30:05;;;;;;;11.43;3.93;;;;;;;;;;4995219;28;20182;-74
2023/10/10 16:33:09;;;;;;;12.60;4.30;;;;;;;;;;4983897;28;20195;-73
2023/10/10 16:36:17;;;;;;;15.23;4.50;;;;;;;;;;4983222;28;20182;-73
2023/10/10 16:39:23;;;;;;;6.23;4.00;;;;;;;;;;4983637;28;20187;-73
2023/10/10 16:42:27;;;;;;;14.20;4.50;;;;;;;;;;4982949;28;20218;-73
2023/10/10 16:45:32;;;;;;;13.83;4.70;;;;;;;;;;4995190;28;20661;-73
2023/10/10 16:48:38;;;;;;;10.70;4.20;;;;;;;;;;4983044;28;20193;-73
2023/10/10 16:51:42;;;;;;;11.53;4.03;;;;;;;;;;4994878;28;20225;-73
2023/10/10 16:54:50;;;;;;;13.40;4.10;;;;;;;;;;4995115;28;20183;-74
2023/10/10 16:57:54;;;;;;;9.50;3.77;;;;;;;;;;4994737;28;20232;-73
2023/10/10 17:01:20;;;;;;;12.67;4.60;;;;;;;;;;4983050;28;20186;-74
2023/10/10 17:04:24;;;;;;;19.07;4.40;;;;;;;;;;4994825;28;20223;-73
2023/10/10 17:07:28;;;;;;;13.27;4.93;;;;;;;;;;4994585;28;20678;-73
2023/10/10 17:10:32;;;;;;;10.77;4.60;;;;;;;;;;4982879;28;20507;-73
2023/10/10 17:13:40;;;;;;;12.23;4.37;;;;;;;;;;4994415;28;20185;-73
2023/10/10 17:16:45;;;;;;;13.43;4.57;;;;;;;;;;4982690;28;20577;-73
2023/10/10 17:19:49;;;;;;;10.67;4.10;;;;;;;;;;4994282;28;20194;-73
2023/10/10 17:22:52;;;;;;;7.43;3.87;;;;;;;;;;4982050;28;20230;-73
2023/10/10 17:25:57;;;;;;;9.83;4.13;;;;;;;;;;4982581;28;20562;-73
2023/10/10 17:29:01;;;;;;;14.13;4.37;;;;;;;;;;4994139;28;20183;-74
2023/10/10 17:32:05;;;;;;;12.30;3.93;;;;;;;;;;4994003;28;20223;-73
2023/10/10 17:35:10;;;;;;;10.73;4.40;;;;;;;;;;4982405;28;20653;-73
2023/10/10 17:38:15;;;;;;;10.70;4.07;;;;;;;;;;4982095;28;20200;-73
2023/10/10 17:41:21;;;;;;;16.97;4.50;;;;;;;;;;4982317;28;20233;-73
2023/10/10 17:44:26;;;;;;;10.37;4.67;;;;;;;;;;4994145;28;20214;-73
2023/10/10 17:47:30;;;;;;;11.43;4.23;;;;;;;;;;4981991;28;20204;-73
2023/10/10 17:50:37;;;;;;;13.43;4.87;;;;;;;;;;4994126;28;20216;-73
2023/10/10 17:53:42;;;;;;;12.63;4.83;;;;;;;;;;4981831;28;20185;-73
2023/10/10 17:56:47;;;;;;;12.53;4.60;;;;;;;;;;4981551;28;20191;-73
2023/10/10 17:59:52;;;;;;;11.60;4.97;;;;;;;;;;4993992;28;20185;-73
2023/10/10 18:02:56;;;;;;;10.23;4.57;;;;;;;;;;4970712;28;20233;-73
2023/10/10 18:06:01;;;;;;;11.03;4.60;;;;;;;;;;4993892;28;20225;-73
2023/10/10 18:09:08;;;;;;;13.00;3.63;;;;;;;;;;4982201;28;20193;-73
2023/10/10 18:12:12;;;;;;;9.80;4.40;;;;;;;;;;4994248;28;20712;-72
2023/10/10 18:15:18;;;;;;;10.87;4.43;;;;;;;;;;4981626;28;20178;-73
2023/10/10 18:18:23;;;;;;;8.47;3.87;;;;;;;;;;4981639;28;20672;-72
2023/10/10 18:21:29;;;;;;;11.30;4.07;;;;;;;;;;4993631;28;20226;-72
2023/10/10 18:24:37;;;;;;;8.63;3.97;;;;;;;;;;4993427;28;20218;-74
2023/10/10 18:27:44;;;;;;;10.33;4.30;;;;;;;;;;4993660;28;20246;-72
2023/10/10 18:30:48;;;;;;;12.03;3.83;;;;;;;;;;4993314;28;20554;-72
2023/10/10 18:33:52;;;;;;;10.83;4.50;;;;;;;;;;4970691;28;20194;-72
2023/10/10 18:36:57;;;;;;;12.40;4.93;;;;;;;;;;4993718;28;20197;-72
2023/10/10 18:40:06;;;;;;;13.87;4.37;;;;;;;;;;4981643;28;20213;-72
2023/10/10 18:43:11;;;;;;;11.13;3.90;;;;;;;;;;4993418;28;20209;-72
2023/10/10 18:46:16;;;;;;;12.53;4.87;;;;;;;;;;4993849;28;20691;-72
2023/10/10 18:49:21;;;;;;;17.07;4.90;;;;;;;;;;4981675;28;20194;-72
2023/10/10 18:52:25;;;;;;;8.63;4.03;;;;;;;;;;4981361;28;20222;-72
2023/10/10 18:55:29;;;;;;;11.37;4.33;;;;;;;;;;4981229;28;20174;-72
2023/10/10 18:58:38;;;;;;;10.67;4.53;;;;;;;;;;4993209;28;20213;-72
2023/10/10 19:01:44;;;;;;;12.17;4.57;;;;;;;;;;4981368;28;20716;-72
2023/10/10 19:04:48;;;;;;;11.83;4.27;;;;;;;;;;4981201;28;20229;-72
2023/10/10 19:07:58;;;;;;;15.00;4.50;;;;;;;;;;4973607;28;20585;-72
2023/10/10 19:11:03;;;;;;;16.40;4.43;;;;;;;;;;4996871;28;20225;-72
2023/10/10 19:14:09;;;;;;;9.97;4.07;;;;;;;;;;4996978;28;20187;-72
2023/10/10 19:17:14;;;;;;;11.33;4.33;;;;;;;;;;4984746;28;20186;-72
2023/10/10 19:20:23;;;;;;;15.73;5.13;;;;;;;;;;4984758;28;20202;-73
2023/10/10 19:23:29;;;;;;;12.23;4.77;;;;;;;;;;4984750;28;20203;-73
2023/10/10 19:26:35;;;;;;;13.43;5.33;;;;;;;;;;4996731;28;20186;-72
2023/10/10 19:29:39;;;;;;;12.97;4.70;;;;;;;;;;4984362;28;20194;-73
2023/10/10 19:32:46;;;;;;;12.33;4.73;;;;;;;;;;4996258;28;20210;-73
2023/10/10 19:35:50;;;;;;;15.47;4.43;;;;;;;;;;4984488;28;20182;-73
2023/10/10 19:38:55;;;;;;;13.27;4.87;;;;;;;;;;4986516;28;20681;-73
2023/10/10 19:41:59;;;;;;;11.23;4.23;;;;;;;;;;5015995;28;20229;-73
2023/10/10 19:45:04;;;;;;;9.23;4.40;;;;;;;;;;5015864;28;20230;-73
2023/10/10 19:48:08;;;;;;;10.90;4.37;;;;;;;;;;5015763;28;20364;-73
2023/10/10 19:51:16;;;;;;;12.67;5.07;;;;;;;;;;5015811;28;20223;-73
2023/10/10 19:54:21;;;;;;;10.90;4.30;;;;;;;;;;5003896;28;20186;-72
2023/10/10 19:57:25;;;;;;;9.53;4.50;;;;;;;;;;5015506;28;20205;-73
2023/10/10 20:00:30;;;;;;;13.20;4.43;;;;;;;;;;5015615;28;20194;-73
2023/10/10 20:03:34;;;;;;;9.30;4.37;;;;;;;;;;5015374;28;20197;-73
2023/10/10 20:06:40;;;;;;;11.63;4.93;;;;;;;;;;5015279;28;20193;-73
2023/10/10 20:09:45;;;;;;;16.20;5.00;;;;;;;;;;5003323;28;20189;-73
2023/10/10 20:12:53;;;;;;;11.37;4.97;;;;;;;;;;5015128;28;20225;-72
2023/10/10 20:15:57;;;;;;;10.43;4.90;;;;;;;;;;5003382;28;20182;-73
2023/10/10 20:19:01;;;;;;;14.10;4.70;;;;;;;;;;5014538;28;20548;-72
2023/10/10 20:22:05;;;;;;;12.40;4.70;;;;;;;;;;5014889;28;20228;-73
2023/10/10 20:25:12;;;;;;;19.47;5.07;;;;;;;;;;5003021;28;20233;-73
2023/10/10 20:28:16;;;;;;;15.97;4.77;;;;;;;;;;5014953;28;20192;-72
2023/10/10 20:31:21;;;;;;;14.43;4.23;;;;;;;;;;5014924;28;20224;-72
2023/10/10 20:34:26;;;;;;;12.70;4.67;;;;;;;;;;5014756;28;20669;-72
2023/10/10 20:37:30;;;;;;;14.03;5.43;;;;;;;;;;5002663;28;20193;-73
2023/10/10 20:40:35;;;;;;;18.50;5.00;;;;;;;;;;5003132;28;20202;-72
2023/10/10 20:43:40;;;;;;;12.93;4.57;;;;;;;;;;5014091;28;20206;-73
2023/10/10 20:46:45;;;;;;;9.77;4.53;;;;;;;;;;5002348;28;20669;-72
2023/10/10 20:49:49;;;;;;;10.53;4.73;;;;;;;;;;5002352;28;20652;-72
2023/10/10 20:52:57;;;;;;;13.33;4.50;;;;;;;;;;5014311;28;20584;-72
2023/10/10 20:56:02;;;;;;;12.60;4.80;;;;;;;;;;5014852;28;20186;-73
2023/10/10 20:59:07;;;;;;;15.77;4.43;;;;;;;;;;5014198;28;20213;-72
2023/10/10 21:02:11;;;;;;;13.77;4.43;;;;;;;;;;5002201;28;20721;-72
2023/10/10 21:05:16;;;;;;;13.77;4.87;;;;;;;;;;5002124;28;20215;-73
2023/10/10 21:08:20;;;;;;;13.80;4.23;;;;;;;;;;5014116;28;20193;-72
2023/10/10 21:11:24;;;;;;;17.10;5.27;;;;;;;;;;5014030;28;20224;-72
2023/10/10 21:14:29;;;;;;;11.63;4.40;;;;;;;;;;5014234;28;20200;-73
2023/10/10 21:17:34;;;;;;;10.27;4.80;;;;;;;;;;5013918;28;20210;-73
2023/10/10 21:20:38;;;;;;;13.17;4.23;;;;;;;;;;5002411;28;20221;-73
2023/10/10 21:23:42;;;;;;;11.20;4.53;;;;;;;;;;5001729;28;20549;-73
2023/10/10 21:26:46;;;;;;;13.33;4.40;;;;;;;;;;5013767;28;20189;-73
2023/10/10 21:29:51;;;;;;;13.90;4.20;;;;;;;;;;5013064;28;20189;-72
2023/10/10 21:32:58;;;;;;;15.87;4.57;;;;;;;;;;5001886;28;20233;-72
2023/10/10 21:36:05;;;;;;;18.10;4.77;;;;;;;;;;4990502;28;20195;-72
2023/10/10 21:39:09;;;;;;;12.20;4.87;;;;;;;;;;5001904;28;20196;-72
2023/10/10 21:42:14;;;;;;;16.47;5.50;;;;;;;;;;5013466;28;20232;-72
2023/10/10 21:45:20;;;;;;;19.20;5.20;;;;;;;;;;5001900;28;20224;-72
2023/10/10 21:48:24;;;;;;;17.13;4.67;;;;;;;;;;5001335;28;20186;-73
2023/10/10 21:51:31;;;;;;;9.73;4.53;;;;;;;;;;5013593;28;20225;-72
2023/10/10 21:54:37;;;;;;;13.20;4.90;;;;;;;;;;5013705;28;20181;-72
2023/10/10 21:57:46;;;;;;;21.67;5.23;;;;;;;;;;5013466;28;20703;-73
2023/10/10 22:00:55;;;;;;;10.20;4.47;;;;;;;;;;5001390;28;20184;-72
2023/10/10 22:03:59;;;;;;;13.57;5.03;;;;;;;;;;5013356;28;20563;-73
2023/10/10 22:07:04;;;;;;;9.93;4.67;;;;;;;;;;5013291;28;20191;-73
2023/10/10 22:10:20;;;;;;;11.83;5.20;;;;;;;;;;5013227;28;20641;-72
2023/10/10 22:13:25;;;;;;;12.77;4.90;;;;;;;;;;5001116;28;20185;-73
2023/10/10 22:16:31;;;;;;;12.27;4.40;;;;;;;;;;5001417;28;20196;-72
2023/10/10 22:19:35;;;;;;;15.23;4.87;;;;;;;;;;5013593;28;20204;-72
2023/10/10 22:22:40;;;;;;;16.17;4.80;;;;;;;;;;5061504;23;20242;-76
2023/10/10 22:25:44;;;;;;;15.40;5.13;;;;;;;;;;5072909;28;20697;-74
2023/10/10 22:28:49;;;;;;;15.47;5.37;;;;;;;;;;5073181;28;20179;-75
2023/10/10 22:31:53;;;;;;;11.97;5.03;;;;;;;;;;5040540;28;20227;-76
2023/10/10 22:34:58;;;;;;;17.53;5.43;;;;;;;;;;5052089;28;20191;-76
2023/10/10 22:38:05;;;;;;;12.23;4.10;;;;;;;;;;5052123;28;20193;-75
2023/10/10 22:41:10;;;;;;;12.10;4.80;;;;;;;;;;5052951;28;20236;-75
2023/10/10 22:44:14;;;;;;;13.43;4.73;;;;;;;;;;5033522;28;20192;-75
2023/10/10 22:47:18;;;;;;;12.83;4.70;;;;;;;;;;5055936;28;20176;-76
2023/10/10 22:50:26;;;;;;;14.63;5.10;;;;;;;;;;5056880;28;20203;-75
2023/10/10 22:53:30;;;;;;;14.93;4.93;;;;;;;;;;5056590;28;20211;-75
2023/10/10 22:56:34;;;;;;;14.17;4.77;;;;;;;;;;5044508;28;20192;-75
2023/10/10 22:59:38;;;;;;;12.70;4.60;;;;;;;;;;5056678;28;20199;-76
2023/10/10 23:02:44;;;;;;;17.33;5.40;;;;;;;;;;5044069;28;20232;-74
2023/10/10 23:05:49;;;;;;;15.70;5.00;;;;;;;;;;5056507;28;20225;-76
2023/10/10 23:08:53;;;;;;;14.17;5.20;;;;;;;;;;5043983;28;20188;-74
2023/10/10 23:11:58;;;;;;;12.10;4.87;;;;;;;;;;5056108;28;20227;-75
2023/10/10 23:15:05;;;;;;;12.40;5.07;;;;;;;;;;5055372;28;20183;-75
2023/10/10 23:18:09;;;;;;;15.63;5.07;;;;;;;;;;5055256;28;20662;-75
2023/10/10 23:21:13;;;;;;;13.90;4.87;;;;;;;;;;5055837;28;20228;-76
2023/10/10 23:24:17;;;;;;;16.23;5.77;;;;;;;;;;5043850;28;20550;-76
2023/10/10 23:27:22;;;;;;;15.67;5.70;;;;;;;;;;5055327;28;20176;-75
2023/10/10 23:30:29;;;;;;;14.97;5.70;;;;;;;;;;5055020;28;20195;-76
2023/10/10 23:33:33;;;;;;;11.53;4.80;;;;;;;;;;5032297;28;20191;-75
2023/10/10 23:36:37;;;;;;;12.97;5.00;;;;;;;;;;5055766;28;20187;-76
2023/10/10 23:39:42;;;;;;;15.73;5.77;;;;;;;;;;5054983;28;20537;-75
2023/10/10 23:42:49;;;;;;;13.23;5.17;;;;;;;;;;5054625;28;20224;-75
2023/10/10 23:45:59;;;;;;;9.97;5.60;;;;;;;;;;5055395;28;20605;-75
2023/10/10 23:49:03;;;;;;;13.53;5.13;;;;;;;;;;5055717;28;20181;-75
2023/10/10 23:52:07;;;;;;;12.30;5.57;;;;;;;;;;5055076;28;20224;-75
2023/10/10 23:55:16;;;;;;;18.60;5.87;;;;;;;;;;5055508;28;20539;-75
2023/10/10 23:58:23;;;;;;;9.97;5.00;;;;;;;;;;5055684;28;20180;-74
